< < Back
Terminal Aerodrome Forecast


Current Version              Previous Versions:   1  2  3  4  5  6  7  8  9  

Terminal Aerodrome Forecast

527
FTUS42 KJAX 311700
TAFSSI
TAF
KSSI 311729Z 3118/0118 12011KT P6SM SCT060
     FM010300 12006KT P6SM FEW030
     FM010900 VRB03KT P6SM SCT020
     FM011600 10007KT P6SM BKN100=

Latest METAR

366
SAUS70 KWBC 311700 RRS
MTRSSI
METAR KSSI 311653Z AUTO 12009KT 10SM FEW065 31/22 A3000 RMK AO2 SLP158
T03110222


USA.gov is the U.S. government's official web portal to all federal, state and local government web resources and services.